createdAt,value
2019-03-18T00:00:58.199Z,993.96
2019-03-18T00:02:08.846Z,993.96
2019-03-18T00:03:19.500Z,994.02
2019-03-18T00:04:30.149Z,994.00
2019-03-18T00:05:41.308Z,993.92
2019-03-18T00:06:52.625Z,994.02
2019-03-18T00:08:03.777Z,994.02
2019-03-18T00:09:14.413Z,994.03
2019-03-18T00:10:25.555Z,994.08
2019-03-18T00:11:36.694Z,994.05
2019-03-18T00:12:47.339Z,994.08
2019-03-18T00:13:58.672Z,994.10
2019-03-18T00:15:09.767Z,994.08
2019-03-18T00:16:20.404Z,994.12
2019-03-18T00:17:31.552Z,994.08
2019-03-18T00:18:42.687Z,994.09
2019-03-18T00:19:53.838Z,994.07
2019-03-18T00:21:04.974Z,994.13
2019-03-18T00:22:15.613Z,994.14
2019-03-18T00:23:26.764Z,994.14
2019-03-18T00:24:37.404Z,994.16
2019-03-18T00:25:48.038Z,994.07
2019-03-18T00:26:58.687Z,994.09
2019-03-18T00:28:09.325Z,994.17
2019-03-18T00:29:19.978Z,994.18
2019-03-18T00:30:31.108Z,994.21
2019-03-18T00:31:42.237Z,994.19
2019-03-18T00:32:53.376Z,994.21
2019-03-18T00:34:04.631Z,994.25
2019-03-18T00:35:15.763Z,994.29
2019-03-18T00:36:26.424Z,994.30
2019-03-18T00:37:37.078Z,994.34
2019-03-18T00:38:48.213Z,994.36
2019-03-18T00:39:58.860Z,994.39
2019-03-18T00:41:09.993Z,994.40
2019-03-18T00:42:20.623Z,994.38
2019-03-18T00:43:31.991Z,994.35
2019-03-18T00:44:43.130Z,994.37
2019-03-18T00:45:53.770Z,994.32
2019-03-18T00:47:04.420Z,994.44
2019-03-18T00:48:15.061Z,994.43
2019-03-18T00:49:25.689Z,994.38
2019-03-18T00:50:36.843Z,994.40
2019-03-18T00:51:47.470Z,994.40
2019-03-18T00:52:58.623Z,994.41
2019-03-18T00:54:09.256Z,994.41
2019-03-18T00:55:20.395Z,994.39
2019-03-18T00:56:31.033Z,994.36
2019-03-18T00:57:44.164Z,994.42
2019-03-18T00:58:54.797Z,994.46
2019-03-18T01:00:05.925Z,994.38
2019-03-18T01:01:16.569Z,994.38
2019-03-18T01:02:27.215Z,994.37
2019-03-18T01:03:37.859Z,994.36
2019-03-18T01:04:48.987Z,994.37
2019-03-18T01:06:00.125Z,994.43
2019-03-18T01:07:11.245Z,994.47
2019-03-18T01:08:21.883Z,994.44
2019-03-18T01:09:33.000Z,994.47
2019-03-18T01:10:44.148Z,994.39
2019-03-18T01:11:55.281Z,994.48
2019-03-18T01:13:05.909Z,994.41
2019-03-18T01:14:16.537Z,994.39
2019-03-18T01:15:28.614Z,994.39
2019-03-18T01:16:37.808Z,994.41
2019-03-18T01:17:48.440Z,994.39
2019-03-18T01:18:59.570Z,994.38
2019-03-18T01:20:10.202Z,994.36
2019-03-18T01:21:20.864Z,994.39
2019-03-18T01:22:31.977Z,994.36
2019-03-18T01:23:43.106Z,994.31
2019-03-18T01:24:54.232Z,994.36
2019-03-18T01:26:04.869Z,994.32
2019-03-18T01:27:15.999Z,994.38
2019-03-18T01:28:27.133Z,994.41
2019-03-18T01:29:37.771Z,994.36
2019-03-18T01:30:48.906Z,994.41
2019-03-18T01:31:59.552Z,994.35
2019-03-18T01:33:10.689Z,994.35
2019-03-18T01:34:21.821Z,994.34
2019-03-18T01:35:32.637Z,994.35
2019-03-18T01:36:43.277Z,994.38
2019-03-18T01:37:54.404Z,994.36
2019-03-18T01:39:05.567Z,994.39
2019-03-18T01:40:16.706Z,994.31
2019-03-18T01:41:27.844Z,994.43
2019-03-18T01:42:38.652Z,994.40
2019-03-18T01:43:49.282Z,994.45
2019-03-18T01:44:59.923Z,994.47
2019-03-18T01:46:10.555Z,994.46
2019-03-18T01:47:21.693Z,994.49
2019-03-18T01:48:32.829Z,994.50
2019-03-18T01:49:43.465Z,994.49
2019-03-18T01:50:54.096Z,994.45
2019-03-18T01:52:04.727Z,994.45
2019-03-18T01:53:15.868Z,994.37
2019-03-18T01:54:26.507Z,994.41
2019-03-18T01:55:37.219Z,994.49
2019-03-18T01:56:48.271Z,994.55
2019-03-18T01:57:58.914Z,994.55
2019-03-18T01:59:09.550Z,994.53
2019-03-18T02:00:20.192Z,994.57
2019-03-18T02:01:30.824Z,994.59
2019-03-18T02:02:41.991Z,994.58
2019-03-18T02:03:52.720Z,994.62
2019-03-18T02:05:03.777Z,994.59
2019-03-18T02:06:14.411Z,994.55
2019-03-18T02:07:25.042Z,994.54
2019-03-18T02:08:35.699Z,994.60
2019-03-18T02:09:46.817Z,994.61
2019-03-18T02:10:57.448Z,994.58
2019-03-18T02:12:08.638Z,994.58
2019-03-18T02:13:19.768Z,994.55
2019-03-18T02:14:30.396Z,994.54
2019-03-18T02:15:52.662Z,994.57
2019-03-18T02:16:52.156Z,994.50
2019-03-18T02:18:02.794Z,994.56
2019-03-18T02:19:13.430Z,994.52
2019-03-18T02:20:24.655Z,994.52
2019-03-18T02:21:35.776Z,994.59
2019-03-18T02:22:46.405Z,994.53
2019-03-18T02:23:57.037Z,994.58
2019-03-18T02:25:08.151Z,994.63
2019-03-18T02:26:19.283Z,994.60
2019-03-18T02:27:29.910Z,994.61
2019-03-18T02:28:40.538Z,994.62
2019-03-18T02:29:51.674Z,994.67
2019-03-18T02:31:02.805Z,994.64
2019-03-18T02:32:13.426Z,994.61
2019-03-18T02:33:24.647Z,994.59
2019-03-18T02:34:35.270Z,994.60
2019-03-18T02:35:46.395Z,994.65
2019-03-18T02:36:57.023Z,994.63
2019-03-18T02:38:07.645Z,994.60
2019-03-18T02:39:18.285Z,994.67
2019-03-18T02:40:29.408Z,994.63
2019-03-18T02:41:40.051Z,994.63
2019-03-18T02:42:51.365Z,994.65
2019-03-18T02:44:01.964Z,994.63
2019-03-18T02:45:12.674Z,994.68
2019-03-18T02:46:23.225Z,994.72
2019-03-18T02:47:33.847Z,994.67
2019-03-18T02:48:44.624Z,994.70
2019-03-18T02:49:55.758Z,994.69
2019-03-18T02:51:07.877Z,994.67
2019-03-18T02:52:18.502Z,994.69
2019-03-18T02:53:29.126Z,994.78
2019-03-18T02:54:39.757Z,994.75
2019-03-18T02:55:50.880Z,994.76
2019-03-18T02:57:01.503Z,994.78
2019-03-18T02:58:12.148Z,994.77
2019-03-18T02:59:22.775Z,994.78
2019-03-18T03:00:33.404Z,994.86
2019-03-18T03:01:44.043Z,994.81
2019-03-18T03:02:54.661Z,994.86
2019-03-18T03:04:05.304Z,994.85
2019-03-18T03:05:16.448Z,994.82
2019-03-18T03:06:27.573Z,994.85
2019-03-18T03:07:38.699Z,994.84
2019-03-18T03:08:49.828Z,994.83
2019-03-18T03:10:01.956Z,994.88
2019-03-18T03:11:13.091Z,994.83
2019-03-18T03:12:24.232Z,994.88
2019-03-18T03:13:35.440Z,994.84
2019-03-18T03:14:45.989Z,994.85
2019-03-18T03:15:57.130Z,994.86
2019-03-18T03:17:08.768Z,994.87
2019-03-18T03:18:19.391Z,994.88
2019-03-18T03:19:30.623Z,994.92
2019-03-18T03:20:41.803Z,994.88
2019-03-18T03:21:52.888Z,994.90
2019-03-18T03:23:03.529Z,994.91
2019-03-18T03:24:14.679Z,994.95
2019-03-18T03:25:25.826Z,995.00
2019-03-18T03:26:36.470Z,995.02
2019-03-18T03:27:47.599Z,994.97
2019-03-18T03:28:58.241Z,995.00
2019-03-18T03:30:09.377Z,995.06
2019-03-18T03:31:20.630Z,995.08
2019-03-18T03:32:31.762Z,995.05
2019-03-18T03:33:42.405Z,995.10
2019-03-18T03:34:53.206Z,995.11
2019-03-18T03:36:04.157Z,995.11
2019-03-18T03:37:15.300Z,995.06
2019-03-18T03:38:25.933Z,995.11
2019-03-18T03:39:37.066Z,995.16
2019-03-18T03:40:47.700Z,995.13
2019-03-18T03:41:58.364Z,995.21
2019-03-18T03:43:09.010Z,995.16
2019-03-18T03:44:19.653Z,995.17
2019-03-18T03:45:30.788Z,995.19
2019-03-18T03:46:43.425Z,995.16
2019-03-18T03:47:52.342Z,995.16
2019-03-18T03:49:03.009Z,995.25
2019-03-18T03:50:14.121Z,995.24
2019-03-18T03:51:24.763Z,995.22
2019-03-18T03:52:35.402Z,995.24
2019-03-18T03:53:46.051Z,995.25
2019-03-18T03:54:56.693Z,995.27
2019-03-18T03:56:07.830Z,995.26
2019-03-18T03:57:18.636Z,995.24
2019-03-18T03:58:29.813Z,995.28
2019-03-18T03:59:40.427Z,995.26
2019-03-18T04:00:51.565Z,995.27
2019-03-18T04:02:02.230Z,995.31
2019-03-18T04:03:12.846Z,995.29
2019-03-18T04:04:23.491Z,995.36
2019-03-18T04:05:34.135Z,995.31
2019-03-18T04:06:45.287Z,995.35
2019-03-18T04:07:56.418Z,995.42
2019-03-18T04:09:07.056Z,995.43
2019-03-18T04:10:18.198Z,995.44
2019-03-18T04:11:28.837Z,995.47
2019-03-18T04:12:39.982Z,995.49
2019-03-18T04:13:51.115Z,995.55
2019-03-18T04:15:02.260Z,995.55
2019-03-18T04:16:13.384Z,995.53
2019-03-18T04:17:24.619Z,995.55
2019-03-18T04:18:35.267Z,995.59
2019-03-18T04:19:46.423Z,995.59
2019-03-18T04:20:57.080Z,995.62
2019-03-18T04:22:09.207Z,995.61
2019-03-18T04:23:20.360Z,995.60
2019-03-18T04:24:31.504Z,995.60
2019-03-18T04:25:42.146Z,995.64
2019-03-18T04:26:53.290Z,995.63
2019-03-18T04:28:04.424Z,995.58
2019-03-18T04:29:15.573Z,995.59
2019-03-18T04:30:26.206Z,995.62
2019-03-18T04:31:37.346Z,995.67
2019-03-18T04:32:47.986Z,995.69
2019-03-18T04:33:59.123Z,995.64
2019-03-18T04:35:10.271Z,995.68
2019-03-18T04:36:21.413Z,995.71
2019-03-18T04:37:32.622Z,995.80
2019-03-18T04:38:43.784Z,995.74
2019-03-18T04:39:54.429Z,995.75
2019-03-18T04:41:05.622Z,995.79
2019-03-18T04:42:16.229Z,995.81
2019-03-18T04:43:27.379Z,995.79
2019-03-18T04:44:38.535Z,995.78
2019-03-18T04:45:49.679Z,995.77
2019-03-18T04:47:13.430Z,995.79
2019-03-18T04:48:11.974Z,995.73
2019-03-18T04:49:23.130Z,995.74
2019-03-18T04:50:34.271Z,995.83
2019-03-18T04:51:45.423Z,995.85
2019-03-18T04:52:56.615Z,995.85
2019-03-18T04:54:07.755Z,995.88
2019-03-18T04:55:18.917Z,995.89
2019-03-18T04:56:31.060Z,995.89
2019-03-18T04:57:42.206Z,995.94
2019-03-18T04:58:53.342Z,995.94
2019-03-18T05:00:05.489Z,995.97
2019-03-18T05:01:16.636Z,995.97
2019-03-18T05:02:27.775Z,996.01
2019-03-18T05:03:38.914Z,995.99
2019-03-18T05:04:50.067Z,995.99
2019-03-18T05:06:01.210Z,995.98
2019-03-18T05:07:12.358Z,995.98
2019-03-18T05:08:23.511Z,995.93
2019-03-18T05:09:34.684Z,995.89
2019-03-18T05:10:45.830Z,995.83
2019-03-18T05:11:56.987Z,995.85
2019-03-18T05:13:08.132Z,995.85
2019-03-18T05:14:19.281Z,995.83
2019-03-18T05:15:30.433Z,995.86
2019-03-18T05:16:41.080Z,995.84
2019-03-18T05:17:52.222Z,995.88
2019-03-18T05:19:03.369Z,995.88
2019-03-18T05:20:14.625Z,995.84
2019-03-18T05:21:25.773Z,995.86
2019-03-18T05:22:36.927Z,995.92
2019-03-18T05:23:48.076Z,995.90
2019-03-18T05:24:59.241Z,995.93
2019-03-18T05:26:09.893Z,995.95
2019-03-18T05:27:21.054Z,995.97
2019-03-18T05:28:32.194Z,996.02
2019-03-18T05:29:43.335Z,996.04
2019-03-18T05:30:54.630Z,996.01
2019-03-18T05:32:05.762Z,996.07
2019-03-18T05:33:16.914Z,996.07
2019-03-18T05:34:28.067Z,996.08
2019-03-18T05:35:40.217Z,996.03
2019-03-18T05:36:51.355Z,996.03
2019-03-18T05:38:02.616Z,996.08
2019-03-18T05:39:13.265Z,996.08
2019-03-18T05:40:23.914Z,996.12
2019-03-18T05:41:35.062Z,996.22
2019-03-18T05:42:46.210Z,996.18
2019-03-18T05:43:57.352Z,996.27
2019-03-18T05:45:08.617Z,996.35
2019-03-18T05:46:20.767Z,996.33
2019-03-18T05:47:39.060Z,996.39
2019-03-18T05:48:43.046Z,996.39
2019-03-18T05:49:54.703Z,996.35
2019-03-18T05:51:05.359Z,996.33
2019-03-18T05:52:16.642Z,996.29
2019-03-18T05:53:27.774Z,996.29
2019-03-18T05:54:38.422Z,996.29
2019-03-18T05:55:49.564Z,996.31
2019-03-18T05:57:00.230Z,996.31
2019-03-18T05:58:11.374Z,996.34
2019-03-18T05:59:22.625Z,996.26
2019-03-18T06:00:33.783Z,996.32
2019-03-18T06:01:44.940Z,996.28
2019-03-18T06:02:56.082Z,996.31
2019-03-18T06:04:07.271Z,996.38
2019-03-18T06:05:17.921Z,996.38
2019-03-18T06:06:28.584Z,996.38
2019-03-18T06:07:40.231Z,996.41
2019-03-18T06:08:50.887Z,996.38
2019-03-18T06:10:02.056Z,996.41
2019-03-18T06:11:13.235Z,996.36
2019-03-18T06:12:24.382Z,996.36
2019-03-18T06:13:35.535Z,996.40
2019-03-18T06:14:46.690Z,996.49
2019-03-18T06:15:57.859Z,996.47
2019-03-18T06:17:09.025Z,996.46
2019-03-18T06:18:20.170Z,996.45
2019-03-18T06:19:31.327Z,996.52
2019-03-18T06:20:42.484Z,996.47
2019-03-18T06:21:53.637Z,996.44
2019-03-18T06:23:04.790Z,996.48
2019-03-18T06:24:15.941Z,996.44
2019-03-18T06:25:27.101Z,996.41
2019-03-18T06:26:38.268Z,996.42
2019-03-18T06:27:49.450Z,996.42
2019-03-18T06:29:00.623Z,996.38
2019-03-18T06:30:11.285Z,996.41
2019-03-18T06:31:22.457Z,996.44
2019-03-18T06:32:33.612Z,996.39
2019-03-18T06:33:44.774Z,996.40
2019-03-18T06:34:55.938Z,996.48
2019-03-18T06:36:07.117Z,996.43
2019-03-18T06:37:18.298Z,996.45
2019-03-18T06:38:29.463Z,996.44
2019-03-18T06:39:40.619Z,996.50
2019-03-18T06:40:51.792Z,996.52
2019-03-18T06:42:03.748Z,996.57
2019-03-18T06:43:14.921Z,996.53
2019-03-18T06:44:26.113Z,996.48
2019-03-18T06:45:37.290Z,996.55
2019-03-18T06:46:48.479Z,996.59
2019-03-18T06:48:04.930Z,996.60
2019-03-18T06:49:10.334Z,996.64
2019-03-18T06:50:21.513Z,996.67
2019-03-18T06:51:32.692Z,996.65
2019-03-18T06:52:43.906Z,996.70
2019-03-18T06:53:55.096Z,996.74
2019-03-18T06:55:06.273Z,996.76
2019-03-18T06:56:17.470Z,996.76
2019-03-18T06:57:28.681Z,996.69
2019-03-18T06:58:40.872Z,996.73
2019-03-18T06:59:52.051Z,996.69
2019-03-18T07:01:03.242Z,996.71
2019-03-18T07:02:14.426Z,996.75
2019-03-18T07:03:25.616Z,996.78
2019-03-18T07:04:36.807Z,996.78
2019-03-18T07:05:48.017Z,996.78
2019-03-18T07:06:59.211Z,996.75
2019-03-18T07:08:10.408Z,996.82
2019-03-18T07:09:21.618Z,996.84
2019-03-18T07:10:33.812Z,996.76
2019-03-18T07:11:45.007Z,996.81
2019-03-18T07:12:56.214Z,996.87
2019-03-18T07:14:07.423Z,996.91
2019-03-18T07:15:18.623Z,996.92
2019-03-18T07:16:29.833Z,996.88
2019-03-18T07:17:41.033Z,996.87
2019-03-18T07:18:52.239Z,996.93
2019-03-18T07:20:03.448Z,996.94
2019-03-18T07:21:14.970Z,996.89
2019-03-18T07:22:25.866Z,996.89
2019-03-18T07:23:36.579Z,996.91
2019-03-18T07:24:47.782Z,996.89
2019-03-18T07:25:58.983Z,996.92
2019-03-18T07:27:10.179Z,996.90
2019-03-18T07:28:20.881Z,996.89
2019-03-18T07:29:31.596Z,996.97
2019-03-18T07:30:42.798Z,996.94
2019-03-18T07:31:53.994Z,996.92
2019-03-18T07:33:05.194Z,996.91
2019-03-18T07:34:16.397Z,996.93
2019-03-18T07:35:27.619Z,996.95
2019-03-18T07:36:38.797Z,996.99
2019-03-18T07:37:49.984Z,997.00
2019-03-18T07:39:01.194Z,996.98
2019-03-18T07:40:12.395Z,997.01
2019-03-18T07:41:23.599Z,997.00
2019-03-18T07:42:34.796Z,997.06
2019-03-18T07:43:45.505Z,997.10
2019-03-18T07:44:56.723Z,997.14
2019-03-18T07:46:07.924Z,997.13
2019-03-18T07:47:19.130Z,997.20
2019-03-18T07:48:31.593Z,997.18
2019-03-18T07:49:41.543Z,997.19
2019-03-18T07:50:52.736Z,997.17
2019-03-18T07:52:03.935Z,997.24
2019-03-18T07:53:15.141Z,997.21
2019-03-18T07:54:32.786Z,997.19
2019-03-18T07:55:37.220Z,997.23
2019-03-18T07:56:48.353Z,997.23
2019-03-18T07:57:59.555Z,997.29
2019-03-18T07:59:10.772Z,997.34
2019-03-18T08:00:21.981Z,997.35
2019-03-18T08:01:33.198Z,997.38
2019-03-18T08:02:44.415Z,997.41
2019-03-18T08:03:55.632Z,997.47
2019-03-18T08:05:06.838Z,997.48
2019-03-18T08:06:18.050Z,997.51
2019-03-18T08:07:29.265Z,997.47
2019-03-18T08:08:41.471Z,997.47
2019-03-18T08:09:52.681Z,997.55
2019-03-18T08:11:03.919Z,997.50
2019-03-18T08:12:15.107Z,997.59
2019-03-18T08:13:26.054Z,997.57
2019-03-18T08:14:37.269Z,997.57
2019-03-18T08:15:47.997Z,997.65
2019-03-18T08:16:59.223Z,997.67
2019-03-18T08:18:09.938Z,997.70
2019-03-18T08:19:21.154Z,997.70
2019-03-18T08:20:32.367Z,997.74
2019-03-18T08:21:43.582Z,997.74
2019-03-18T08:22:54.803Z,997.76
2019-03-18T08:24:05.523Z,997.80
2019-03-18T08:25:16.739Z,997.87
2019-03-18T08:26:27.620Z,997.94
2019-03-18T08:27:39.006Z,997.98
2019-03-18T08:28:49.735Z,997.94
2019-03-18T08:30:00.620Z,997.98
2019-03-18T08:31:11.355Z,997.96
2019-03-18T08:32:22.087Z,998.00
2019-03-18T08:33:32.813Z,997.97
2019-03-18T08:34:44.029Z,998.01
2019-03-18T08:35:55.262Z,998.04
2019-03-18T08:37:06.630Z,998.08
2019-03-18T08:38:17.853Z,998.08
2019-03-18T08:39:34.353Z,998.05
2019-03-18T08:40:45.602Z,998.02
2019-03-18T08:41:57.856Z,997.93
2019-03-18T08:43:09.097Z,997.96
2019-03-18T08:44:19.847Z,997.96
2019-03-18T08:45:30.609Z,997.95
2019-03-18T08:46:41.868Z,997.92
2019-03-18T08:47:53.140Z,997.81
2019-03-18T08:49:04.395Z,997.74
2019-03-18T08:50:15.667Z,997.70
2019-03-18T08:51:26.976Z,997.61
2019-03-18T08:52:38.247Z,997.56
2019-03-18T08:53:49.030Z,997.51
2019-03-18T08:55:00.366Z,997.38
2019-03-18T08:56:11.087Z,997.28
2019-03-18T08:57:22.373Z,997.24
2019-03-18T08:58:33.187Z,997.18
2019-03-18T08:59:43.970Z,997.10
2019-03-18T09:00:55.267Z,997.08
2019-03-18T09:02:06.623Z,997.11
2019-03-18T09:03:17.417Z,997.05
2019-03-18T09:04:28.236Z,997.02
2019-03-18T09:05:39.050Z,997.02
2019-03-18T09:06:50.361Z,997.10
2019-03-18T09:08:01.669Z,997.07
2019-03-18T09:09:12.973Z,997.00
2019-03-18T09:10:24.276Z,996.90
2019-03-18T09:11:35.600Z,996.91
2019-03-18T09:12:46.418Z,997.00
2019-03-18T09:13:57.228Z,997.01
2019-03-18T09:15:08.622Z,996.94
2019-03-18T09:16:19.939Z,996.85
2019-03-18T09:17:31.288Z,996.91
2019-03-18T09:18:42.611Z,996.88
2019-03-18T09:19:53.944Z,996.75
2019-03-18T09:21:04.758Z,996.75
2019-03-18T09:22:15.590Z,996.70
2019-03-18T09:23:26.422Z,996.59
2019-03-18T09:24:37.249Z,996.62
2019-03-18T09:25:48.100Z,996.70
2019-03-18T09:27:02.697Z,996.65
2019-03-18T09:28:10.793Z,996.56
2019-03-18T09:29:22.133Z,996.16
2019-03-18T09:30:32.979Z,996.12
2019-03-18T09:31:44.324Z,996.09
2019-03-18T09:32:55.708Z,995.93
2019-03-18T09:34:06.574Z,995.79
2019-03-18T09:35:17.442Z,995.71
2019-03-18T09:36:28.311Z,995.88
2019-03-18T09:37:39.680Z,996.11
2019-03-18T09:38:50.553Z,996.63
2019-03-18T09:40:01.440Z,996.37
2019-03-18T09:41:12.325Z,995.59
2019-03-18T09:42:23.231Z,995.05
2019-03-18T09:43:34.332Z,994.78
2019-03-18T09:44:45.233Z,994.95
2019-03-18T09:45:56.127Z,995.68
2019-03-18T09:47:07.033Z,995.34
2019-03-18T09:48:18.440Z,995.26
2019-03-18T09:49:29.360Z,994.84
2019-03-18T09:50:40.285Z,994.45
2019-03-18T09:51:51.719Z,993.91
2019-03-18T09:53:02.660Z,993.63
2019-03-18T09:54:13.602Z,993.98
2019-03-18T09:55:24.540Z,994.51
2019-03-18T09:56:35.500Z,995.11
2019-03-18T09:57:46.430Z,995.43
2019-03-18T09:58:57.856Z,995.53
2019-03-18T10:00:08.788Z,995.83
2019-03-18T10:01:19.718Z,996.48
2019-03-18T10:02:31.134Z,996.75
2019-03-18T10:03:42.069Z,996.74
2019-03-18T10:04:53.010Z,997.19
2019-03-18T10:06:04.617Z,996.84
2019-03-18T10:07:15.581Z,995.65
2019-03-18T10:08:26.563Z,994.71
2019-03-18T10:09:37.558Z,993.51
2019-03-18T10:10:48.569Z,994.10
2019-03-18T10:12:00.079Z,993.36
2019-03-18T10:13:11.113Z,993.36
2019-03-18T10:14:22.144Z,993.29
2019-03-18T10:15:33.182Z,994.02
2019-03-18T10:16:44.209Z,994.88
2019-03-18T10:17:55.219Z,995.61
2019-03-18T10:19:06.235Z,996.25
2019-03-18T10:20:17.742Z,996.70
2019-03-18T10:21:29.219Z,997.28
2019-03-18T10:22:40.709Z,997.75
2019-03-18T10:23:51.676Z,998.18
2019-03-18T10:25:04.254Z,998.44
2019-03-18T10:26:14.639Z,998.72
2019-03-18T10:27:26.116Z,998.86
2019-03-18T10:28:37.066Z,998.83
2019-03-18T10:29:48.623Z,998.93
2019-03-18T10:31:00.063Z,999.08
2019-03-18T10:32:11.004Z,999.46
2019-03-18T10:33:21.959Z,998.70
2019-03-18T10:34:33.421Z,997.73
2019-03-18T10:35:44.397Z,997.37
2019-03-18T10:36:55.865Z,997.41
2019-03-18T10:38:07.325Z,997.05
2019-03-18T10:39:18.329Z,996.78
2019-03-18T10:40:29.816Z,996.41
2019-03-18T10:41:41.312Z,996.12
2019-03-18T10:42:52.321Z,996.23
2019-03-18T10:44:04.837Z,994.66
2019-03-18T10:45:15.890Z,994.14
2019-03-18T10:46:27.469Z,993.77
2019-03-18T10:47:38.573Z,993.18
2019-03-18T10:48:50.194Z,992.93
2019-03-18T10:50:01.856Z,992.60
2019-03-18T10:51:13.034Z,992.82
2019-03-18T10:52:24.254Z,992.63
2019-03-18T10:53:35.424Z,993.06
2019-03-18T10:54:46.650Z,992.76
2019-03-18T10:56:07.326Z,992.71
2019-03-18T10:57:09.171Z,993.02
2019-03-18T10:58:20.968Z,993.33
2019-03-18T10:59:32.255Z,993.46
2019-03-18T11:00:43.567Z,994.50
2019-03-18T11:01:55.327Z,995.57
2019-03-18T11:03:06.593Z,996.66
2019-03-18T11:04:18.337Z,997.51
2019-03-18T11:05:30.048Z,998.52
2019-03-18T11:06:41.748Z,999.02
2019-03-18T11:07:52.929Z,999.50
2019-03-18T11:09:04.084Z,999.68
2019-03-18T11:10:15.247Z,999.78
2019-03-18T11:11:26.395Z,999.37
2019-03-18T11:12:37.545Z,998.61
2019-03-18T11:13:48.674Z,998.49
2019-03-18T11:14:59.801Z,998.73
2019-03-18T11:16:11.418Z,999.29
2019-03-18T11:17:22.535Z,999.22
2019-03-18T11:18:33.638Z,999.10
2019-03-18T11:19:44.747Z,999.16
2019-03-18T11:20:55.852Z,999.28
2019-03-18T11:22:07.017Z,999.36
2019-03-18T11:23:18.015Z,999.46
2019-03-18T11:24:29.074Z,999.57
2019-03-18T11:25:40.157Z,999.78
2019-03-18T11:26:51.215Z,999.98
2019-03-18T11:28:02.256Z,1000.31
2019-03-18T11:29:13.290Z,1000.56
2019-03-18T11:30:24.792Z,1000.76
2019-03-18T11:31:35.800Z,1000.95
2019-03-18T11:32:46.803Z,1000.81
2019-03-18T11:33:57.792Z,1000.87
2019-03-18T11:35:08.772Z,1000.94
2019-03-18T11:36:19.742Z,1001.02
2019-03-18T11:37:30.699Z,1001.08
2019-03-18T11:38:43.136Z,1001.00
2019-03-18T11:39:54.629Z,1000.94
2019-03-18T11:41:06.049Z,1000.96
2019-03-18T11:42:16.972Z,1000.91
2019-03-18T11:43:27.876Z,1000.91
2019-03-18T11:44:39.281Z,1000.88
2019-03-18T11:45:50.182Z,1000.89
2019-03-18T11:47:01.587Z,1000.88
2019-03-18T11:48:12.463Z,1000.85
2019-03-18T11:49:23.333Z,1000.60
2019-03-18T11:50:34.205Z,1000.58
2019-03-18T11:51:45.559Z,1000.50
2019-03-18T11:52:56.425Z,1000.42
2019-03-18T11:54:07.789Z,1000.40
2019-03-18T11:55:19.163Z,1000.33
2019-03-18T11:56:30.070Z,999.85
2019-03-18T11:57:41.495Z,998.23
2019-03-18T11:58:52.438Z,995.95
2019-03-18T12:00:03.417Z,995.12
2019-03-18T12:01:14.418Z,994.35
2019-03-18T12:02:27.890Z,993.92
2019-03-18T12:03:36.517Z,993.95
2019-03-18T12:04:47.590Z,993.95
2019-03-18T12:05:58.709Z,993.84
2019-03-18T12:07:10.331Z,993.93
2019-03-18T12:08:21.994Z,993.95
2019-03-18T12:09:33.166Z,993.93
2019-03-18T12:10:44.357Z,993.98
2019-03-18T12:11:56.048Z,994.12
2019-03-18T12:13:08.274Z,993.69
2019-03-18T12:14:19.506Z,993.43
2019-03-18T12:15:30.733Z,994.05
2019-03-18T12:16:41.946Z,995.17
2019-03-18T12:17:53.178Z,996.33
2019-03-18T12:19:04.326Z,997.17
2019-03-18T12:20:24.540Z,998.10
2019-03-18T12:21:27.616Z,998.70
2019-03-18T12:22:39.236Z,999.21
2019-03-18T12:25:02.909Z,999.60
2019-03-18T12:26:14.691Z,999.69
2019-03-18T12:27:26.184Z,999.79
2019-03-18T12:28:37.724Z,999.68
2019-03-18T12:29:48.750Z,999.76
2019-03-18T12:30:59.829Z,999.76
2019-03-18T12:32:11.251Z,999.83
2019-03-18T12:33:22.252Z,999.79
2019-03-18T12:34:33.241Z,999.75
2019-03-18T12:35:44.215Z,999.80
2019-03-18T12:36:55.186Z,999.83
2019-03-18T12:38:06.657Z,999.82
2019-03-18T12:39:17.632Z,999.96
2019-03-18T12:40:29.108Z,999.91
2019-03-18T12:41:40.627Z,999.66
2019-03-18T12:42:51.648Z,999.13
2019-03-18T12:44:03.218Z,998.46
2019-03-18T12:45:14.804Z,997.99
2019-03-18T12:46:25.933Z,997.64
2019-03-18T12:47:37.091Z,997.07
2019-03-18T12:48:48.266Z,996.82
2019-03-18T12:50:00.450Z,996.69
2019-03-18T12:51:11.638Z,996.78
2019-03-18T12:52:22.839Z,996.77
2019-03-18T12:53:34.044Z,996.61
2019-03-18T12:54:45.230Z,996.80
2019-03-18T12:55:56.909Z,997.02
2019-03-18T12:57:08.066Z,997.37
2019-03-18T12:58:19.200Z,997.58
2019-03-18T12:59:30.811Z,997.91
2019-03-18T13:00:42.420Z,998.29
2019-03-18T13:01:53.512Z,998.57
2019-03-18T13:03:04.600Z,998.79
2019-03-18T13:04:15.664Z,999.21
2019-03-18T13:05:26.711Z,999.45
2019-03-18T13:06:38.252Z,999.77
2019-03-18T13:07:49.774Z,1000.00
2019-03-18T13:09:01.282Z,1000.16
2019-03-18T13:10:12.291Z,1000.23
2019-03-18T13:11:23.790Z,1000.27
2019-03-18T13:12:34.804Z,1000.24
2019-03-18T13:13:45.802Z,1000.12
2019-03-18T13:14:57.284Z,1000.04
2019-03-18T13:16:08.777Z,1000.03
2019-03-18T13:17:19.749Z,1000.03
2019-03-18T13:18:30.734Z,1000.04
2019-03-18T13:19:42.231Z,1000.03
2019-03-18T13:20:53.225Z,1000.09
2019-03-18T13:22:04.718Z,999.88
2019-03-18T13:23:15.736Z,999.59
2019-03-18T13:24:27.257Z,999.29
2019-03-18T13:25:38.811Z,998.56
2019-03-18T13:26:49.879Z,997.66
2019-03-18T13:28:01.465Z,997.37
2019-03-18T13:29:13.065Z,997.21
2019-03-18T13:30:24.198Z,996.85
2019-03-18T13:31:35.818Z,996.17
2019-03-18T13:32:47.472Z,995.59
2019-03-18T13:33:59.099Z,995.89
2019-03-18T13:35:10.735Z,996.16
2019-03-18T13:36:25.201Z,996.58
2019-03-18T13:37:33.458Z,996.94
2019-03-18T13:38:44.654Z,997.51
2019-03-18T13:39:55.769Z,998.09
2019-03-18T13:41:06.884Z,998.02
2019-03-18T13:42:18.071Z,997.85
2019-03-18T13:43:29.216Z,997.45
2019-03-18T13:44:40.882Z,996.92
2019-03-18T13:45:55.653Z,996.52
2019-03-18T13:47:04.294Z,996.35
2019-03-18T13:48:15.973Z,996.33
2019-03-18T13:49:27.666Z,996.03
2019-03-18T13:50:40.372Z,996.01
2019-03-18T13:51:52.082Z,995.78
2019-03-18T13:53:03.811Z,995.64
2019-03-18T13:54:15.589Z,995.62
2019-03-18T13:55:26.836Z,995.38
2019-03-18T13:56:38.586Z,995.48
2019-03-18T13:57:49.848Z,995.60
2019-03-18T13:59:01.600Z,995.62
2019-03-18T14:00:13.386Z,995.28
2019-03-18T14:01:25.168Z,995.47
2019-03-18T14:02:36.935Z,995.49
2019-03-18T14:03:48.715Z,995.71
2019-03-18T14:05:00.012Z,995.73
2019-03-18T14:06:11.800Z,995.61
2019-03-18T14:07:23.096Z,995.55
2019-03-18T14:08:34.405Z,995.49
2019-03-18T14:09:46.217Z,995.75
2019-03-18T14:10:57.518Z,995.78
2019-03-18T14:12:08.831Z,995.91
2019-03-18T14:13:20.132Z,996.01
2019-03-18T14:14:31.448Z,996.05
2019-03-18T14:15:43.251Z,996.24
2019-03-18T14:16:55.063Z,996.34
2019-03-18T14:18:06.862Z,996.35
2019-03-18T14:19:18.184Z,996.05
2019-03-18T14:20:30.004Z,996.18
2019-03-18T14:21:41.318Z,996.18
2019-03-18T14:22:52.653Z,996.22
2019-03-18T14:24:04.628Z,996.46
2019-03-18T14:25:16.025Z,996.12
2019-03-18T14:26:27.277Z,995.84
2019-03-18T14:27:38.601Z,996.00
2019-03-18T14:28:49.919Z,995.94
2019-03-18T14:30:01.745Z,996.21
2019-03-18T14:31:13.558Z,995.72
2019-03-18T14:32:24.884Z,995.85
2019-03-18T14:33:36.669Z,996.03
2019-03-18T14:34:47.986Z,996.38
2019-03-18T14:35:59.797Z,996.07
2019-03-18T14:37:11.609Z,995.63
2019-03-18T14:38:22.919Z,995.62
2019-03-18T14:39:34.214Z,996.06
2019-03-18T14:40:46.028Z,995.66
2019-03-18T14:41:57.337Z,995.41
2019-03-18T14:43:09.139Z,995.86
2019-03-18T14:44:20.935Z,996.14
2019-03-18T14:45:32.238Z,996.34
2019-03-18T14:46:43.576Z,996.24
2019-03-18T14:47:54.871Z,996.39